createdAt,value
2019-03-22T00:02:31.863Z,181.73
2019-03-22T00:05:36.302Z,153.47
2019-03-22T00:08:40.694Z,176.10
2019-03-22T00:11:45.059Z,122.60
2019-03-22T00:14:49.423Z,156.03
2019-03-22T00:17:53.873Z,200.37
2019-03-22T00:20:58.249Z,202.13
2019-03-22T00:24:02.602Z,229.03
2019-03-22T00:27:15.960Z,135.93
2019-03-22T00:30:13.187Z,205.77
2019-03-22T00:33:17.555Z,184.83
2019-03-22T00:36:22.002Z,151.43
2019-03-22T00:39:26.349Z,296.43
2019-03-22T00:42:30.737Z,171.97
2019-03-22T00:45:35.110Z,153.93
2019-03-22T00:48:39.494Z,290.30
2019-03-22T00:51:43.865Z,215.47
2019-03-22T00:54:48.256Z,156.33
2019-03-22T00:57:52.603Z,186.63
2019-03-22T01:00:56.952Z,155.93
2019-03-22T01:04:01.410Z,240.70
2019-03-22T01:07:05.840Z,280.27
2019-03-22T01:10:10.807Z,211.03
2019-03-22T01:13:15.231Z,192.50
2019-03-22T01:16:19.615Z,178.30
2019-03-22T01:19:23.980Z,319.07
2019-03-22T01:22:28.332Z,98.70
2019-03-22T01:25:32.712Z,191.27
2019-03-22T01:28:37.120Z,164.47
2019-03-22T01:31:41.737Z,235.40
2019-03-22T01:34:46.102Z,215.93
2019-03-22T01:37:50.470Z,217.23
2019-03-22T01:40:54.859Z,226.00
2019-03-22T01:43:59.220Z,215.40
2019-03-22T01:47:03.675Z,259.57
2019-03-22T01:50:09.867Z,103.53
2019-03-22T01:53:14.198Z,98.37
2019-03-22T01:56:18.572Z,160.13
2019-03-22T01:59:22.946Z,145.50
2019-03-22T02:02:27.463Z,181.50
2019-03-22T02:05:31.839Z,228.47
2019-03-22T02:08:36.374Z,158.40
2019-03-22T02:11:40.733Z,159.67
2019-03-22T02:14:45.085Z,195.53
2019-03-22T02:17:49.435Z,172.43
2019-03-22T02:20:53.797Z,160.97
2019-03-22T02:23:58.132Z,169.40
2019-03-22T02:27:02.513Z,161.73
2019-03-22T02:30:07.805Z,125.07
2019-03-22T02:33:12.258Z,288.40
2019-03-22T02:36:16.611Z,195.00
2019-03-22T02:39:21.099Z,272.83
2019-03-22T02:42:25.514Z,207.10
2019-03-22T02:45:29.925Z,314.60
2019-03-22T02:48:34.308Z,339.17
2019-03-22T02:51:38.658Z,150.77
2019-03-22T02:54:43.007Z,193.83
2019-03-22T02:57:47.422Z,207.10
2019-03-22T03:00:51.936Z,202.53
2019-03-22T03:03:56.298Z,127.13
2019-03-22T03:07:00.758Z,112.40
2019-03-22T03:10:07.334Z,154.03
2019-03-22T03:13:11.730Z,229.03
2019-03-22T03:16:16.172Z,179.63
2019-03-22T03:19:20.616Z,150.40
2019-03-22T03:22:24.994Z,152.80
2019-03-22T03:25:29.401Z,176.60
2019-03-22T03:28:36.984Z,136.50
2019-03-22T03:31:39.887Z,153.43
2019-03-22T03:34:44.259Z,148.70
2019-03-22T03:37:48.702Z,212.17
2019-03-22T03:40:53.176Z,132.63
2019-03-22T03:43:57.737Z,144.23
2019-03-22T03:47:02.133Z,174.10
2019-03-22T03:50:07.975Z,80.70
2019-03-22T03:53:12.337Z,129.93
2019-03-22T03:56:21.300Z,185.73
2019-03-22T03:59:27.579Z,112.10
2019-03-22T04:02:33.209Z,92.20
2019-03-22T04:05:40.094Z,144.17
2019-03-22T04:08:45.646Z,92.97
2019-03-22T04:11:50.830Z,137.70
2019-03-22T04:14:58.754Z,76.97
2019-03-22T04:18:04.811Z,92.90
2019-03-22T04:21:09.579Z,113.03
2019-03-22T04:24:15.853Z,90.57
2019-03-22T04:27:24.227Z,88.80
2019-03-22T04:30:33.305Z,98.33
2019-03-22T04:33:44.058Z,86.20
2019-03-22T04:36:49.576Z,124.40
2019-03-22T04:39:55.607Z,103.43
2019-03-22T04:43:05.456Z,71.53
2019-03-22T04:46:15.032Z,92.17
2019-03-22T04:49:26.930Z,140.93
2019-03-22T04:52:36.612Z,101.40
2019-03-22T04:55:44.241Z,75.37
2019-03-22T04:58:50.431Z,109.90
2019-03-22T05:01:56.456Z,112.03
2019-03-22T05:05:01.080Z,88.13
2019-03-22T05:08:06.310Z,101.93
2019-03-22T05:11:14.980Z,106.77
2019-03-22T05:14:56.764Z,81.83
2019-03-22T05:18:04.216Z,131.57
2019-03-22T05:21:10.972Z,85.00
2019-03-22T05:24:18.408Z,67.30
2019-03-22T05:27:23.426Z,56.67
2019-03-22T05:31:07.446Z,99.53
2019-03-22T05:34:11.834Z,63.57
2019-03-22T05:37:16.275Z,79.47
2019-03-22T05:40:20.652Z,34.33
2019-03-22T05:43:24.981Z,46.03
2019-03-22T05:46:29.332Z,46.17
2019-03-22T05:49:33.768Z,63.37
2019-03-22T05:52:38.133Z,57.83
2019-03-22T05:55:42.575Z,64.23
2019-03-22T05:58:46.957Z,32.37
2019-03-22T06:01:51.380Z,49.47
2019-03-22T06:04:55.758Z,46.53
2019-03-22T06:08:00.120Z,56.23
2019-03-22T06:11:04.567Z,51.10
2019-03-22T06:14:08.923Z,38.80
2019-03-22T06:17:13.300Z,45.27
2019-03-22T06:20:17.802Z,41.93
2019-03-22T06:23:22.167Z,45.37
2019-03-22T06:26:26.506Z,84.60
2019-03-22T06:29:30.868Z,56.33
2019-03-22T06:32:35.302Z,32.07
2019-03-22T06:35:39.671Z,20.23
2019-03-22T06:38:44.026Z,19.63
2019-03-22T06:41:48.484Z,26.93
2019-03-22T06:44:52.842Z,18.97
2019-03-22T06:47:57.288Z,19.23
2019-03-22T06:51:01.671Z,17.47
2019-03-22T06:54:06.511Z,14.80
2019-03-22T06:57:10.857Z,18.80
2019-03-22T07:00:15.235Z,15.33
2019-03-22T07:03:19.614Z,14.47
2019-03-22T07:06:23.953Z,18.90
2019-03-22T07:09:28.328Z,20.33
2019-03-22T07:12:32.710Z,18.60
2019-03-22T07:15:37.116Z,25.77
2019-03-22T07:18:41.480Z,18.07
2019-03-22T07:21:45.836Z,19.87
2019-03-22T07:24:50.215Z,26.23
2019-03-22T07:27:54.545Z,20.97
2019-03-22T07:30:59.084Z,20.37
2019-03-22T07:34:03.521Z,34.00
2019-03-22T07:37:07.885Z,22.53
2019-03-22T07:40:13.178Z,20.83
2019-03-22T07:43:17.541Z,24.63
2019-03-22T07:46:21.898Z,26.73
2019-03-22T07:49:26.231Z,23.63
2019-03-22T07:52:30.582Z,18.67
2019-03-22T07:55:34.942Z,16.10
2019-03-22T07:58:39.316Z,20.77
2019-03-22T08:01:43.644Z,17.83
2019-03-22T08:04:47.988Z,19.80
2019-03-22T08:07:52.334Z,18.40
2019-03-22T08:10:56.713Z,16.23
2019-03-22T08:14:01.077Z,17.97
2019-03-22T08:17:05.579Z,15.83
2019-03-22T08:20:10.059Z,13.77
2019-03-22T08:23:22.211Z,14.73
2019-03-22T08:26:26.556Z,18.70
2019-03-22T08:29:30.998Z,15.13
2019-03-22T08:32:35.439Z,15.27
2019-03-22T08:35:39.767Z,16.83
2019-03-22T08:38:44.174Z,20.20
2019-03-22T08:41:48.566Z,20.90
2019-03-22T08:44:52.886Z,21.20
2019-03-22T08:47:57.284Z,26.57
2019-03-22T08:51:01.694Z,22.93
2019-03-22T08:54:06.395Z,26.93
2019-03-22T08:57:10.815Z,29.27
2019-03-22T09:00:15.516Z,33.00
2019-03-22T09:03:20.202Z,37.70
2019-03-22T09:06:24.721Z,46.33
2019-03-22T09:09:40.986Z,48.20
2019-03-22T09:12:35.310Z,53.80
2019-03-22T09:15:41.620Z,59.50
2019-03-22T09:18:47.354Z,70.13
2019-03-22T09:21:51.872Z,65.07
2019-03-22T09:24:56.328Z,66.17
2019-03-22T09:28:00.810Z,66.50
2019-03-22T09:31:10.276Z,56.20
2019-03-22T09:34:11.698Z,38.93
2019-03-22T09:37:16.109Z,40.73
2019-03-22T09:40:20.770Z,38.30
2019-03-22T09:43:25.420Z,23.03
2019-03-22T09:46:29.839Z,23.13
2019-03-22T09:49:34.431Z,21.17
2019-03-22T09:52:39.116Z,22.93
2019-03-22T09:55:43.474Z,17.93
2019-03-22T09:58:47.832Z,16.30
2019-03-22T10:01:54.514Z,15.60
2019-03-22T10:04:58.885Z,14.97
2019-03-22T10:08:03.330Z,16.33
2019-03-22T10:11:07.760Z,18.83
2019-03-22T10:14:12.139Z,20.57
2019-03-22T10:17:16.504Z,20.50
2019-03-22T10:20:20.979Z,22.17
2019-03-22T10:23:27.194Z,26.13
2019-03-22T10:26:31.599Z,24.67
2019-03-22T10:29:35.958Z,28.27
2019-03-22T10:32:40.370Z,27.13
2019-03-22T10:35:44.794Z,29.30
2019-03-22T10:38:50.513Z,36.17
2019-03-22T10:41:55.127Z,31.33
2019-03-22T10:44:59.520Z,35.33
2019-03-22T10:48:03.986Z,39.07
2019-03-22T10:51:08.413Z,43.27
2019-03-22T10:54:12.716Z,48.17
2019-03-22T10:57:17.130Z,43.07
2019-03-22T11:00:22.145Z,36.93
2019-03-22T11:03:26.526Z,37.23
2019-03-22T11:06:30.986Z,30.83
2019-03-22T11:09:35.340Z,23.53
2019-03-22T11:12:39.716Z,29.30
2019-03-22T11:15:48.378Z,25.93
2019-03-22T11:18:50.162Z,26.70
2019-03-22T11:21:54.587Z,26.13
2019-03-22T11:24:58.949Z,21.97
2019-03-22T11:28:03.276Z,19.57
2019-03-22T11:31:07.731Z,22.20
2019-03-22T11:34:12.068Z,21.07
2019-03-22T11:37:16.568Z,20.60
2019-03-22T11:40:21.216Z,22.83
2019-03-22T11:43:25.722Z,21.63
2019-03-22T11:46:31.106Z,17.17
2019-03-22T11:49:35.599Z,21.17
2019-03-22T11:52:40.300Z,20.60
2019-03-22T11:55:44.789Z,25.10
2019-03-22T11:58:49.154Z,23.07
2019-03-22T12:01:53.634Z,23.03
2019-03-22T12:04:57.982Z,24.63
2019-03-22T12:08:02.496Z,25.57
2019-03-22T12:11:06.916Z,23.70
2019-03-22T12:14:11.319Z,26.77
2019-03-22T12:17:15.679Z,27.83
2019-03-22T12:20:20.457Z,32.67
2019-03-22T12:23:24.822Z,39.10
2019-03-22T12:26:29.149Z,33.07
2019-03-22T12:29:34.324Z,39.87
2019-03-22T12:32:38.850Z,41.80
2019-03-22T12:35:43.197Z,42.83
2019-03-22T12:38:47.629Z,53.57
2019-03-22T12:41:52.008Z,56.80
2019-03-22T12:44:56.411Z,53.90
2019-03-22T12:48:01.029Z,65.10
2019-03-22T12:51:05.578Z,71.53
2019-03-22T12:54:09.927Z,65.63
2019-03-22T12:57:14.363Z,63.97
2019-03-22T13:00:20.833Z,65.47
2019-03-22T13:03:25.204Z,61.50
2019-03-22T13:06:30.542Z,73.93
2019-03-22T13:09:34.880Z,71.07
2019-03-22T13:12:39.386Z,69.07
2019-03-22T13:15:43.686Z,73.00
2019-03-22T13:18:50.358Z,77.03
2019-03-22T13:21:54.212Z,75.07
2019-03-22T13:24:58.658Z,76.47
2019-03-22T13:28:03.151Z,77.27
2019-03-22T13:31:07.607Z,78.33
2019-03-22T13:34:13.666Z,77.87
2019-03-22T13:37:17.996Z,74.07
2019-03-22T13:40:22.350Z,76.77
2019-03-22T13:43:26.701Z,70.80
2019-03-22T13:46:39.915Z,72.47
2019-03-22T13:49:37.256Z,69.43
2019-03-22T13:52:41.602Z,71.67
2019-03-22T13:55:46.028Z,71.03
2019-03-22T13:58:50.412Z,72.17
2019-03-22T14:01:54.785Z,76.50
2019-03-22T14:04:59.160Z,73.17
2019-03-22T14:08:04.641Z,67.93
2019-03-22T14:11:09.084Z,72.73
2019-03-22T14:14:13.484Z,65.07
2019-03-22T14:17:18.099Z,68.17
2019-03-22T14:20:22.585Z,67.50
2019-03-22T14:23:26.940Z,70.53
2019-03-22T14:26:31.301Z,69.67
2019-03-22T14:29:35.773Z,73.70
2019-03-22T14:32:40.150Z,80.27
2019-03-22T14:35:44.644Z,76.23
2019-03-22T14:38:49.020Z,79.80
2019-03-22T14:41:53.410Z,80.77
2019-03-22T14:44:57.744Z,83.07
2019-03-22T14:48:02.139Z,81.80
2019-03-22T14:51:06.513Z,88.57
2019-03-22T14:54:10.908Z,82.43
2019-03-22T14:57:15.333Z,86.67
2019-03-22T15:00:19.869Z,85.83
2019-03-22T15:03:25.137Z,83.47
2019-03-22T15:06:29.509Z,80.00
2019-03-22T15:09:33.909Z,88.77
2019-03-22T15:12:38.337Z,89.60
2019-03-22T15:15:51.248Z,92.63
2019-03-22T15:19:17.682Z,86.03
2019-03-22T15:22:39.053Z,80.57
2019-03-22T15:26:04.167Z,82.57
2019-03-22T15:29:26.083Z,90.23
2019-03-22T15:32:49.471Z,83.30
2019-03-22T15:36:17.847Z,84.37
2019-03-22T15:39:39.879Z,81.87
2019-03-22T15:42:44.314Z,85.50
2019-03-22T15:45:48.827Z,87.23
2019-03-22T15:48:53.262Z,83.00
2019-03-22T15:51:57.703Z,84.53
2019-03-22T15:55:02.134Z,86.13
2019-03-22T15:58:06.736Z,89.10
2019-03-22T16:01:11.275Z,84.10
2019-03-22T16:04:15.935Z,81.90
2019-03-22T16:07:20.491Z,85.67
2019-03-22T16:10:24.870Z,78.87
2019-03-22T16:13:29.244Z,80.30
2019-03-22T16:16:33.743Z,80.33
2019-03-22T16:19:38.095Z,81.37
2019-03-22T16:22:42.511Z,84.23
2019-03-22T16:25:46.949Z,79.70
2019-03-22T16:28:51.363Z,78.97
2019-03-22T16:31:55.731Z,79.10
2019-03-22T16:35:00.117Z,76.90
2019-03-22T16:38:04.623Z,86.40
2019-03-22T16:41:08.987Z,78.93
2019-03-22T16:44:13.381Z,78.83
2019-03-22T16:47:17.879Z,80.33
2019-03-22T16:50:24.509Z,82.13
2019-03-22T16:53:28.944Z,78.63
2019-03-22T16:56:34.551Z,79.73
2019-03-22T16:59:38.947Z,84.33
2019-03-22T17:02:43.435Z,85.60
2019-03-22T17:05:47.906Z,77.80
2019-03-22T17:08:52.254Z,83.33
2019-03-22T17:11:56.769Z,78.70
2019-03-22T17:15:01.130Z,80.87
2019-03-22T17:18:06.122Z,85.27
2019-03-22T17:21:10.471Z,84.83
2019-03-22T17:24:14.887Z,86.40
2019-03-22T17:27:19.274Z,84.60
2019-03-22T17:30:23.691Z,78.77
2019-03-22T17:33:28.059Z,84.80
2019-03-22T17:36:32.404Z,83.53
2019-03-22T17:39:36.759Z,81.80
2019-03-22T17:42:41.126Z,85.43
2019-03-22T17:45:45.469Z,86.70
2019-03-22T17:48:49.808Z,81.97
2019-03-22T17:51:54.187Z,85.10
2019-03-22T17:54:58.549Z,97.40
2019-03-22T17:58:02.970Z,92.90
2019-03-22T18:01:07.429Z,94.70
2019-03-22T18:04:11.879Z,98.83
2019-03-22T18:07:16.211Z,101.03
2019-03-22T18:10:20.665Z,94.40
2019-03-22T18:13:25.021Z,93.27
2019-03-22T18:16:29.435Z,91.07
2019-03-22T18:19:33.815Z,90.03
2019-03-22T18:22:38.217Z,95.23
2019-03-22T18:25:42.585Z,92.97
2019-03-22T18:28:47.010Z,96.37
2019-03-22T18:31:51.385Z,104.47
2019-03-22T18:34:55.728Z,99.30
2019-03-22T18:38:00.078Z,100.03
2019-03-22T18:41:04.441Z,97.67
2019-03-22T18:44:08.751Z,96.63
2019-03-22T18:47:13.123Z,103.67
2019-03-22T18:50:17.701Z,102.57
2019-03-22T18:53:22.073Z,103.70
2019-03-22T18:56:26.412Z,100.33
2019-03-22T18:59:30.769Z,99.13
2019-03-22T19:02:35.215Z,101.60
2019-03-22T19:05:39.600Z,105.03
2019-03-22T19:08:43.940Z,107.90
2019-03-22T19:11:48.286Z,109.83
2019-03-22T19:14:52.693Z,109.83
2019-03-22T19:17:57.022Z,107.93
2019-03-22T19:21:01.393Z,117.40
2019-03-22T19:24:05.827Z,115.70
2019-03-22T19:27:10.202Z,100.47
2019-03-22T19:30:14.800Z,98.30
2019-03-22T19:33:19.146Z,109.73
2019-03-22T19:36:23.505Z,103.00
2019-03-22T19:39:27.865Z,110.70
2019-03-22T19:42:32.209Z,112.53
2019-03-22T19:45:36.555Z,117.23
2019-03-22T19:48:40.908Z,116.97
2019-03-22T19:51:45.339Z,113.80
2019-03-22T19:54:49.721Z,118.73
2019-03-22T19:57:54.092Z,113.27
2019-03-22T20:00:58.498Z,104.50
2019-03-22T20:04:02.852Z,109.87
2019-03-22T20:07:07.295Z,122.90
2019-03-22T20:10:12.151Z,115.30
2019-03-22T20:13:16.491Z,104.57
2019-03-22T20:16:20.839Z,113.67
2019-03-22T20:19:25.201Z,113.50
2019-03-22T20:22:29.552Z,105.97
2019-03-22T20:25:33.910Z,105.27
2019-03-22T20:28:38.262Z,103.43
2019-03-22T20:31:42.651Z,107.93
2019-03-22T20:34:50.143Z,107.87
2019-03-22T20:37:54.491Z,99.57
2019-03-22T20:40:58.840Z,98.20
2019-03-22T20:44:03.239Z,94.63
2019-03-22T20:47:07.591Z,94.57
2019-03-22T20:50:12.685Z,97.10
2019-03-22T20:53:17.216Z,101.03
2019-03-22T20:56:21.594Z,97.00
2019-03-22T20:59:25.928Z,91.93
2019-03-22T21:02:30.281Z,88.57
2019-03-22T21:05:34.645Z,88.27
2019-03-22T21:08:39.073Z,98.20
2019-03-22T21:11:43.414Z,96.53
2019-03-22T21:14:47.777Z,91.53
2019-03-22T21:17:52.117Z,92.53
2019-03-22T21:20:56.466Z,89.87
2019-03-22T21:24:00.813Z,99.70
2019-03-22T21:27:15.132Z,97.80
2019-03-22T21:30:11.738Z,92.43
2019-03-22T21:33:16.085Z,96.90
2019-03-22T21:36:20.503Z,84.57
2019-03-22T21:39:24.868Z,88.40
2019-03-22T21:42:29.228Z,87.73
2019-03-22T21:45:33.596Z,101.33
2019-03-22T21:48:37.945Z,108.00
2019-03-22T21:51:42.296Z,100.80
2019-03-22T21:54:46.644Z,92.13
2019-03-22T21:57:51.126Z,85.03
2019-03-22T22:00:55.547Z,90.87
2019-03-22T22:03:59.910Z,92.53
2019-03-22T22:07:04.256Z,96.33
2019-03-22T22:10:10.191Z,96.27
2019-03-22T22:13:14.545Z,89.20
2019-03-22T22:16:19.013Z,98.30
2019-03-22T22:19:23.367Z,198.97
2019-03-22T22:22:27.715Z,132.93
2019-03-22T22:25:32.146Z,111.80
2019-03-22T22:28:36.510Z,97.57
2019-03-22T22:31:40.922Z,109.87
2019-03-22T22:34:45.263Z,117.50
2019-03-22T22:37:49.623Z,138.20
2019-03-22T22:40:53.983Z,144.17
2019-03-22T22:43:58.349Z,186.60
2019-03-22T22:47:02.726Z,212.17
2019-03-22T22:50:08.185Z,250.70
2019-03-22T22:53:12.650Z,244.23
2019-03-22T22:56:17.093Z,180.20
2019-03-22T22:59:21.507Z,193.97
2019-03-22T23:02:25.865Z,196.70
2019-03-22T23:05:30.257Z,198.70
2019-03-22T23:08:34.639Z,185.83
2019-03-22T23:11:39.060Z,284.50
2019-03-22T23:14:43.495Z,324.40
2019-03-22T23:17:47.846Z,351.17
2019-03-22T23:20:52.276Z,339.77
2019-03-22T23:23:56.643Z,388.03
2019-03-22T23:27:01.002Z,310.80
2019-03-22T23:30:05.999Z,326.37
2019-03-22T23:33:10.420Z,318.13
2019-03-22T23:36:20.085Z,239.10
2019-03-22T23:39:20.940Z,350.23
2019-03-22T23:42:25.284Z,303.90
2019-03-22T23:45:29.648Z,331.20
2019-03-22T23:48:33.972Z,319.33
2019-03-22T23:51:38.323Z,338.03
2019-03-22T23:54:42.695Z,320.43
2019-03-22T23:57:47.229Z,376.30
